< < Back
Terminal Aerodrome Forecast


Current Version              Previous Versions:   1  2  3  4  5  6  7  8  9  

Terminal Aerodrome Forecast

865
FTUS42 KGSP 302000 AAA
TAFCLT
TAF AMD
KCLT 302058Z 3021/0118 30004KT P6SM FEW050
     FM010000 00000KT P6SM FEW050
     FM010900 00000KT 5SM BR FEW045
     FM011300 18003KT P6SM FEW045=



Latest METAR

214
SAUS70 KWBC 010400 RRJ
MTRCLT
METAR KCLT 010352Z 00000KT 10SM CLR 19/16 A2994 RMK AO2 SLP132
T01940161


USA.gov is the U.S. government's official web portal to all federal, state and local government web resources and services.